Time,TemperatureF,DewpointF,PressureIn,WindDirection,WindDirectionDegrees,WindSpeedMPH,WindSpeedGustMPH,Humidity,HourlyPrecipIn,Conditions,Clouds,dailyrainin,SolarRadiationWatts/m^2,SoftwareType,DateUTC
2013-08-23 00:14:00,75.5,74.0,30.09,NE,35,0.0,-999.0,94,-99.99,,,0.00,0,weatherlink.com 1.10,2013-08-23 05:14:00,
2013-08-23 00:29:00,75.1,73.0,30.09,NE,35,0.0,-999.0,94,-99.99,,,0.00,0,weatherlink.com 1.10,2013-08-23 05:29:00,
2013-08-23 00:44:00,74.8,73.0,30.09,NE,35,0.0,-999.0,94,-99.99,,,0.00,0,weatherlink.com 1.10,2013-08-23 05:44:00,
2013-08-23 00:59:00,74.5,73.0,30.09,NE,35,0.0,-999.0,95,-99.99,,,0.00,0,weatherlink.com 1.10,2013-08-23 05:59:00,
2013-08-23 01:14:00,74.3,73.0,30.08,NE,35,0.0,-999.0,95,-99.99,,,0.00,0,weatherlink.com 1.10,2013-08-23 06:14:00,
2013-08-23 01:29:00,74.2,73.0,30.08,NE,35,0.0,-999.0,95,-99.99,,,0.00,0,weatherlink.com 1.10,2013-08-23 06:29:00,
2013-08-23 01:44:00,74.3,73.0,30.07,NE,35,0.0,-999.0,95,-99.99,,,0.00,0,weatherlink.com 1.10,2013-08-23 06:44:00,
2013-08-23 01:59:00,73.9,72.0,30.07,NE,35,0.0,-999.0,95,-99.99,,,0.00,0,weatherlink.com 1.10,2013-08-23 06:59:00,
2013-08-23 02:14:00,73.5,72.0,30.07,NE,35,0.0,-999.0,95,-99.99,,,0.00,0,weatherlink.com 1.10,2013-08-23 07:14:00,
2013-08-23 02:29:00,73.0,72.0,30.07,NE,35,0.0,-999.0,96,-99.99,,,0.00,0,weatherlink.com 1.10,2013-08-23 07:29:00,
2013-08-23 02:44:00,73.1,72.0,30.07,NE,35,0.0,-999.0,96,-99.99,,,0.00,0,weatherlink.com 1.10,2013-08-23 07:44:00,
2013-08-23 02:59:00,73.1,72.0,30.08,NE,35,0.0,-999.0,96,-99.99,,,0.00,0,weatherlink.com 1.10,2013-08-23 07:59:00,
2013-08-23 03:14:00,73.0,72.0,30.07,NE,35,0.0,-999.0,96,-99.99,,,0.00,0,weatherlink.com 1.10,2013-08-23 08:14:00,
2013-08-23 03:29:00,72.9,72.0,30.07,NE,35,0.0,-999.0,96,-99.99,,,0.00,0,weatherlink.com 1.10,2013-08-23 08:29:00,
2013-08-23 03:44:00,72.7,72.0,30.07,NE,35,0.0,-999.0,96,-99.99,,,0.00,0,weatherlink.com 1.10,2013-08-23 08:44:00,
2013-08-23 03:59:00,72.4,71.0,30.08,NE,35,0.0,-999.0,96,-99.99,,,0.00,0,weatherlink.com 1.10,2013-08-23 08:59:00,
2013-08-23 04:14:00,72.1,71.0,30.08,NE,35,0.0,-999.0,96,-99.99,,,0.00,0,weatherlink.com 1.10,2013-08-23 09:14:00,
2013-08-23 04:29:00,71.9,71.0,30.08,NE,35,0.0,-999.0,97,-99.99,,,0.00,0,weatherlink.com 1.10,2013-08-23 09:29:00,
2013-08-23 04:44:00,71.8,71.0,30.08,NE,35,0.0,-999.0,97,-99.99,,,0.00,0,weatherlink.com 1.10,2013-08-23 09:44:00,
2013-08-23 04:59:00,71.8,71.0,30.09,NE,35,0.0,-999.0,97,-99.99,,,0.00,0,weatherlink.com 1.10,2013-08-23 09:59:00,
2013-08-23 05:15:00,71.9,71.0,30.09,NE,35,0.0,-999.0,97,-99.99,,,0.00,0,weatherlink.com 1.10,2013-08-23 10:15:00,
2013-08-23 05:30:00,71.8,71.0,30.10,NE,35,0.0,-999.0,97,-99.99,,,0.00,0,weatherlink.com 1.10,2013-08-23 10:30:00,
2013-08-23 05:45:00,71.8,71.0,30.10,NE,35,0.0,-999.0,97,-99.99,,,0.00,0,weatherlink.com 1.10,2013-08-23 10:45:00,
2013-08-23 06:00:00,71.8,71.0,30.10,NE,35,0.0,-999.0,97,-99.99,,,0.00,0,weatherlink.com 1.10,2013-08-23 11:00:00,
2013-08-23 06:15:00,71.6,71.0,30.10,NE,35,0.0,-999.0,97,-99.99,,,0.00,0,weatherlink.com 1.10,2013-08-23 11:15:00,
2013-08-23 06:30:00,71.6,71.0,30.10,NE,35,0.0,-999.0,97,-99.99,,,0.00,0,weatherlink.com 1.10,2013-08-23 11:30:00,
2013-08-23 06:45:00,71.4,71.0,30.11,NE,35,0.0,-999.0,97,-99.99,,,0.00,7,weatherlink.com 1.10,2013-08-23 11:45:00,
2013-08-23 07:00:00,71.1,70.0,30.12,NE,35,0.0,-999.0,97,-99.99,,,0.00,18,weatherlink.com 1.10,2013-08-23 12:00:00,
2013-08-23 07:15:00,71.1,70.0,30.12,NE,35,0.0,-999.0,97,-99.99,,,0.00,32,weatherlink.com 1.10,2013-08-23 12:15:00,
2013-08-23 07:30:00,71.2,70.0,30.12,NE,35,0.0,-999.0,97,-99.99,,,0.00,44,weatherlink.com 1.10,2013-08-23 12:30:00,
2013-08-23 07:45:00,71.3,70.0,30.12,NE,35,0.0,-999.0,97,-99.99,,,0.00,49,weatherlink.com 1.10,2013-08-23 12:45:00,
2013-08-23 08:00:00,71.5,71.0,30.12,NE,35,0.0,-999.0,97,-99.99,,,0.00,81,weatherlink.com 1.10,2013-08-23 13:00:00,
2013-08-23 08:15:00,71.9,71.0,30.12,NE,35,0.0,-999.0,98,-99.99,,,0.00,97,weatherlink.com 1.10,2013-08-23 13:15:00,
2013-08-23 08:30:00,72.5,72.0,30.13,NE,35,0.0,-999.0,98,-99.99,,,0.00,102,weatherlink.com 1.10,2013-08-23 13:30:00,
2013-08-23 08:45:00,73.2,73.0,30.13,NE,35,0.0,-999.0,98,-99.99,,,0.00,276,weatherlink.com 1.10,2013-08-23 13:45:00,
2013-08-23 09:00:00,75.2,75.0,30.13,NE,35,0.0,-999.0,98,-99.99,,,0.00,327,weatherlink.com 1.10,2013-08-23 14:00:00,
2013-08-23 09:15:00,76.8,75.0,30.13,NE,35,0.0,-999.0,94,-99.99,,,0.00,371,weatherlink.com 1.10,2013-08-23 14:15:00,
2013-08-23 09:30:00,76.7,74.0,30.12,NE,35,0.0,-999.0,92,-99.99,,,0.00,417,weatherlink.com 1.10,2013-08-23 14:30:00,
2013-08-23 09:45:00,77.2,75.0,30.12,NE,35,0.0,-999.0,92,-99.99,,,0.00,462,weatherlink.com 1.10,2013-08-23 14:45:00,
2013-08-23 10:00:00,78.6,76.0,30.12,NE,35,0.0,-999.0,90,-99.99,,,0.00,504,weatherlink.com 1.10,2013-08-23 15:00:00,
2013-08-23 10:15:00,80.2,76.0,30.12,NE,35,0.0,-999.0,88,-99.99,,,0.00,548,weatherlink.com 1.10,2013-08-23 15:15:00,
2013-08-23 10:30:00,81.1,76.0,30.12,NE,35,0.0,-999.0,85,-99.99,,,0.00,587,weatherlink.com 1.10,2013-08-23 15:30:00,
2013-08-23 10:46:00,82.1,77.0,30.12,NE,35,0.0,-999.0,84,-99.99,,,0.00,622,weatherlink.com 1.10,2013-08-23 15:46:00,
2013-08-23 11:01:00,82.5,77.0,30.12,NE,35,0.0,-999.0,84,-99.99,,,0.00,670,weatherlink.com 1.10,2013-08-23 16:01:00,
2013-08-23 11:16:00,83.3,77.0,30.12,NE,35,0.0,-999.0,81,-99.99,,,0.00,728,weatherlink.com 1.10,2013-08-23 16:16:00,
2013-08-23 11:31:00,84.1,76.0,30.11,NE,35,0.0,-999.0,77,-99.99,,,0.00,796,weatherlink.com 1.10,2013-08-23 16:31:00,
2013-08-23 11:46:00,84.6,76.0,30.11,NE,35,0.0,-999.0,74,-99.99,,,0.00,241,weatherlink.com 1.10,2013-08-23 16:46:00,
2013-08-23 12:01:00,85.2,75.0,30.11,NE,35,0.0,-999.0,71,-99.99,,,0.00,782,weatherlink.com 1.10,2013-08-23 17:01:00,
2013-08-23 12:16:00,86.1,74.0,30.11,NE,35,0.0,-999.0,67,-99.99,,,0.00,789,weatherlink.com 1.10,2013-08-23 17:16:00,
2013-08-23 12:31:00,85.7,74.0,30.10,NE,35,0.0,-999.0,69,-99.99,,,0.00,821,weatherlink.com 1.10,2013-08-23 17:31:00,
2013-08-23 12:46:00,85.8,75.0,30.10,NE,35,0.0,-999.0,69,-99.99,,,0.00,840,weatherlink.com 1.10,2013-08-23 17:46:00,
2013-08-23 13:01:00,86.2,74.0,30.10,NE,35,0.0,-999.0,66,-99.99,,,0.00,835,weatherlink.com 1.10,2013-08-23 18:01:00,
2013-08-23 13:16:00,86.4,74.0,30.09,NE,35,0.0,-999.0,66,-99.99,,,0.00,828,weatherlink.com 1.10,2013-08-23 18:16:00,
2013-08-23 13:31:00,86.8,73.0,30.09,NE,35,0.0,-999.0,63,-99.99,,,0.00,830,weatherlink.com 1.10,2013-08-23 18:31:00,
2013-08-23 13:46:00,88.2,73.0,30.09,NE,35,0.0,-999.0,60,-99.99,,,0.00,828,weatherlink.com 1.10,2013-08-23 18:46:00,
2013-08-23 14:01:00,89.4,72.0,30.08,NE,35,0.0,-999.0,56,-99.99,,,0.00,814,weatherlink.com 1.10,2013-08-23 19:01:00,
2013-08-23 14:16:00,90.1,74.0,30.07,NE,35,0.0,-999.0,59,-99.99,,,0.00,807,weatherlink.com 1.10,2013-08-23 19:16:00,
2013-08-23 14:31:00,90.9,73.0,30.07,NE,35,0.0,-999.0,55,-99.99,,,0.00,800,weatherlink.com 1.10,2013-08-23 19:31:00,
2013-08-23 14:46:00,91.9,72.0,30.07,NE,35,0.0,-999.0,53,-99.99,,,0.00,833,weatherlink.com 1.10,2013-08-23 19:46:00,
2013-08-23 15:01:00,91.6,73.0,30.06,NE,35,0.0,-999.0,55,-99.99,,,0.00,766,weatherlink.com 1.10,2013-08-23 20:01:00,
2013-08-23 15:16:00,90.2,73.0,30.06,NE,35,0.0,-999.0,58,-99.99,,,0.00,722,weatherlink.com 1.10,2013-08-23 20:16:00,
2013-08-23 15:31:00,90.3,72.0,30.05,NE,35,0.0,-999.0,56,-99.99,,,0.00,664,weatherlink.com 1.10,2013-08-23 20:31:00,
2013-08-23 15:46:00,90.6,73.0,30.05,NE,35,0.0,-999.0,57,-99.99,,,0.00,656,weatherlink.com 1.10,2013-08-23 20:46:00,
2013-08-23 16:01:00,90.5,74.0,30.05,NE,35,0.0,-999.0,58,-99.99,,,0.00,636,weatherlink.com 1.10,2013-08-23 21:01:00,
2013-08-23 16:16:00,91.4,74.0,30.04,NE,35,0.0,-999.0,56,-99.99,,,0.00,578,weatherlink.com 1.10,2013-08-23 21:16:00,
2013-08-23 16:31:00,92.0,72.0,30.05,NE,35,0.0,-999.0,53,-99.99,,,0.00,538,weatherlink.com 1.10,2013-08-23 21:31:00,
2013-08-23 16:46:00,92.5,73.0,30.04,NE,35,0.0,-999.0,54,-99.99,,,0.00,446,weatherlink.com 1.10,2013-08-23 21:46:00,
2013-08-23 17:01:00,92.9,74.0,30.04,NE,35,0.0,-999.0,54,-99.99,,,0.00,436,weatherlink.com 1.10,2013-08-23 22:01:00,
2013-08-23 17:16:00,92.4,74.0,30.04,NE,35,0.0,-999.0,55,-99.99,,,0.00,394,weatherlink.com 1.10,2013-08-23 22:16:00,
2013-08-23 17:31:00,92.4,73.0,30.04,NE,35,0.0,-999.0,53,-99.99,,,0.00,376,weatherlink.com 1.10,2013-08-23 22:31:00,
2013-08-23 17:46:00,92.0,74.0,30.04,NE,35,0.0,-999.0,55,-99.99,,,0.00,167,weatherlink.com 1.10,2013-08-23 22:46:00,
2013-08-23 18:01:00,91.5,74.0,30.04,NE,35,0.0,-999.0,56,-99.99,,,0.00,86,weatherlink.com 1.10,2013-08-23 23:01:00,
2013-08-23 18:16:00,90.9,75.0,30.04,NE,35,0.0,-999.0,60,-99.99,,,0.00,76,weatherlink.com 1.10,2013-08-23 23:16:00,
2013-08-23 18:31:00,90.0,75.0,30.05,NE,35,0.0,-999.0,62,-99.99,,,0.00,63,weatherlink.com 1.10,2013-08-23 23:31:00,
2013-08-23 18:46:00,88.6,75.0,30.05,NE,35,0.0,-999.0,64,-99.99,,,0.00,53,weatherlink.com 1.10,2013-08-23 23:46:00,
2013-08-23 19:01:00,87.3,74.0,30.04,NE,35,0.0,-999.0,65,-99.99,,,0.00,46,weatherlink.com 1.10,2013-08-24 00:01:00,
2013-08-23 19:17:00,86.4,74.0,30.05,NE,35,0.0,-999.0,67,-99.99,,,0.00,33,weatherlink.com 1.10,2013-08-24 00:17:00,
2013-08-23 19:32:00,85.0,74.0,30.05,NE,35,0.0,-999.0,69,-99.99,,,0.00,18,weatherlink.com 1.10,2013-08-24 00:32:00,
2013-08-23 19:47:00,84.2,74.0,30.05,NE,35,0.0,-999.0,71,-99.99,,,0.00,0,weatherlink.com 1.10,2013-08-24 00:47:00,
2013-08-23 20:02:00,83.7,74.0,30.05,NE,35,0.0,-999.0,72,-99.99,,,0.00,0,weatherlink.com 1.10,2013-08-24 01:02:00,
2013-08-23 20:17:00,82.9,73.0,30.05,NE,35,0.0,-999.0,73,-99.99,,,0.00,0,weatherlink.com 1.10,2013-08-24 01:17:00,
2013-08-23 20:32:00,82.3,74.0,30.06,NE,35,0.0,-999.0,75,-99.99,,,0.00,0,weatherlink.com 1.10,2013-08-24 01:32:00,
2013-08-23 20:47:00,81.8,74.0,30.06,NE,35,0.0,-999.0,77,-99.99,,,0.00,0,weatherlink.com 1.10,2013-08-24 01:47:00,
2013-08-23 21:02:00,81.1,74.0,30.07,NE,35,0.0,-999.0,79,-99.99,,,0.00,0,weatherlink.com 1.10,2013-08-24 02:02:00,
2013-08-23 21:17:00,80.6,74.0,30.07,NE,35,0.0,-999.0,79,-99.99,,,0.00,0,weatherlink.com 1.10,2013-08-24 02:17:00,
2013-08-23 21:32:00,80.3,74.0,30.07,NE,35,0.0,-999.0,80,-99.99,,,0.00,0,weatherlink.com 1.10,2013-08-24 02:32:00,
2013-08-23 21:47:00,80.0,73.0,30.07,NE,35,0.0,-999.0,80,-99.99,,,0.00,0,weatherlink.com 1.10,2013-08-24 02:47:00,
2013-08-23 22:02:00,79.6,73.0,30.07,NE,35,0.0,-999.0,80,-99.99,,,0.00,0,weatherlink.com 1.10,2013-08-24 03:02:00,
2013-08-23 22:17:00,79.5,73.0,30.08,NE,35,0.0,-999.0,80,-99.99,,,0.00,0,weatherlink.com 1.10,2013-08-24 03:17:00,
2013-08-23 22:32:00,79.4,73.0,30.08,NE,35,0.0,-999.0,80,-99.99,,,0.00,0,weatherlink.com 1.10,2013-08-24 03:32:00,
2013-08-23 22:47:00,79.1,73.0,30.07,NE,35,0.0,-999.0,81,-99.99,,,0.00,0,weatherlink.com 1.10,2013-08-24 03:47:00,
2013-08-23 23:02:00,78.8,73.0,30.08,NE,35,0.0,-999.0,82,-99.99,,,0.00,0,weatherlink.com 1.10,2013-08-24 04:02:00,
2013-08-23 23:17:00,79.0,76.0,30.08,NE,35,0.0,-999.0,89,-99.99,,,0.00,0,weatherlink.com 1.10,2013-08-24 04:17:00,
2013-08-23 23:32:00,78.5,75.0,30.09,NE,35,0.0,-999.0,90,-99.99,,,0.00,0,weatherlink.com 1.10,2013-08-24 04:32:00,
2013-08-23 23:47:00,78.0,75.0,30.10,NE,35,0.0,-999.0,91,-99.99,,,0.00,0,weatherlink.com 1.10,2013-08-24 04:47:00,